createdAt,value
2023-04-08T00:00:00.847Z,98237.84
2023-04-08T00:05:03.676Z,98238.38
2023-04-08T00:10:07.159Z,98247.59
2023-04-08T00:15:10.693Z,98244.50
2023-04-08T00:20:13.313Z,98250.78
2023-04-08T00:25:16.142Z,98253.03
2023-04-08T00:30:18.838Z,98247.75
2023-04-08T00:35:21.984Z,98249.75
2023-04-08T00:40:25.038Z,98254.16
2023-04-08T00:45:27.822Z,98250.41
2023-04-08T00:50:30.782Z,98258.56
2023-04-08T00:55:33.356Z,98268.75
2023-04-08T01:00:43.167Z,98273.09
2023-04-08T01:06:26.425Z,98267.38
2023-04-08T01:11:34.533Z,98272.88
2023-04-08T01:16:42.612Z,98266.94
2023-04-08T01:21:45.909Z,98264.00
2023-04-08T01:26:50.185Z,98272.16
2023-04-08T01:31:55.196Z,98266.72
2023-04-08T01:36:59.636Z,98264.28
2023-04-08T01:42:03.001Z,98265.00
2023-04-08T01:47:05.936Z,98262.19
2023-04-08T01:52:10.784Z,98265.84
2023-04-08T01:57:21.202Z,98253.81
2023-04-08T02:02:26.804Z,98251.03
2023-04-08T02:07:29.488Z,98265.56
2023-04-08T02:12:33.697Z,98264.78
2023-04-08T02:17:47.435Z,98264.94
2023-04-08T02:23:06.014Z,98267.97
2023-04-08T02:28:11.725Z,98266.31
2023-04-08T02:33:15.081Z,98265.97
2023-04-08T02:38:17.760Z,98269.03
2023-04-08T02:43:20.579Z,98265.41
2023-04-08T02:48:23.564Z,98267.66
2023-04-08T02:53:26.683Z,98261.38
2023-04-08T02:58:29.586Z,98268.38
2023-04-08T03:03:32.430Z,98264.97
2023-04-08T03:08:35.099Z,98268.66
2023-04-08T03:13:38.011Z,98268.16
2023-04-08T03:18:40.544Z,98261.13
2023-04-08T03:23:43.048Z,98263.16
2023-04-08T03:28:45.645Z,98269.53
2023-04-08T03:33:48.309Z,98268.16
2023-04-08T03:38:51.289Z,98275.25
2023-04-08T03:43:54.349Z,98277.88
2023-04-08T03:48:56.887Z,98275.28
2023-04-08T03:53:59.424Z,98277.53
2023-04-08T03:59:02.075Z,98274.50
2023-04-08T04:04:04.961Z,98281.66
2023-04-08T04:09:07.636Z,98278.75
2023-04-08T04:14:10.171Z,98287.09
2023-04-08T04:19:12.760Z,98283.13
2023-04-08T04:24:15.554Z,98278.94
2023-04-08T04:29:18.076Z,98277.22
2023-04-08T04:34:20.834Z,98281.75
2023-04-08T04:39:23.690Z,98280.72
2023-04-08T04:44:26.325Z,98285.13
2023-04-08T04:49:29.023Z,98290.88
2023-04-08T04:54:31.508Z,98289.03
2023-04-08T04:59:34.005Z,98289.22
2023-04-08T05:04:36.665Z,98295.88
2023-04-08T05:09:39.235Z,98299.06
2023-04-08T05:14:42.450Z,98305.00
2023-04-08T05:19:45.013Z,98310.84
2023-04-08T05:24:47.545Z,98317.03
2023-04-08T05:29:50.076Z,98317.84
2023-04-08T05:34:52.987Z,98323.25
2023-04-08T05:39:55.724Z,98324.94
2023-04-08T05:44:58.381Z,98339.19
2023-04-08T05:50:00.975Z,98338.28
2023-04-08T05:55:03.613Z,98344.09
2023-04-08T06:00:08.787Z,98344.16
2023-04-08T06:05:12.536Z,98350.41
2023-04-08T06:10:15.206Z,98357.94
2023-04-08T06:15:17.833Z,98358.69
2023-04-08T06:20:21.040Z,98359.19
2023-04-08T06:25:24.147Z,98366.44
2023-04-08T06:30:26.876Z,98372.75
2023-04-08T06:35:29.735Z,98377.72
2023-04-08T06:40:32.481Z,98377.63
2023-04-08T06:45:35.641Z,98383.06
2023-04-08T06:50:38.190Z,98383.06
2023-04-08T06:55:40.946Z,98386.09
2023-04-08T07:00:43.900Z,98392.84
2023-04-08T07:05:47.411Z,98392.16
2023-04-08T07:10:52.394Z,98391.47
2023-04-08T07:15:55.286Z,98398.03
2023-04-08T07:20:58.081Z,98402.22
2023-04-08T07:26:06.514Z,98407.84
2023-04-08T07:31:18.997Z,98405.06
2023-04-08T07:36:21.957Z,98404.34
2023-04-08T07:41:24.806Z,98406.13
2023-04-08T07:46:27.492Z,98423.69
2023-04-08T07:51:30.240Z,98420.38
2023-04-08T07:56:32.904Z,98425.13
2023-04-08T08:01:36.108Z,98421.25
2023-04-08T08:06:38.774Z,98416.63
2023-04-08T08:11:41.467Z,98423.94
2023-04-08T08:16:44.848Z,98432.03
2023-04-08T08:21:47.636Z,98428.34
2023-04-08T08:26:50.253Z,98435.84
2023-04-08T08:31:53.370Z,98439.53
2023-04-08T08:36:56.238Z,98448.66
2023-04-08T08:42:01.737Z,98444.13
2023-04-08T08:47:05.490Z,98447.13
2023-04-08T08:52:08.067Z,98444.66
2023-04-08T08:57:21.200Z,98443.47
2023-04-08T09:02:32.450Z,98445.22
2023-04-08T09:07:41.966Z,98439.63
2023-04-08T09:13:02.840Z,98456.38
2023-04-08T09:18:23.583Z,98451.06
2023-04-08T09:23:40.124Z,98455.16
2023-04-08T09:28:44.013Z,98458.56
2023-04-08T09:33:48.388Z,98459.19
2023-04-08T09:38:51.461Z,98467.59
2023-04-08T09:43:59.047Z,98464.66
2023-04-08T09:49:15.948Z,98455.84
2023-04-08T09:54:23.521Z,98453.03
2023-04-08T09:59:28.237Z,98456.00
2023-04-08T10:04:32.985Z,98455.94
2023-04-08T10:09:38.316Z,98464.88
2023-04-08T10:14:40.888Z,98456.13
2023-04-08T10:19:43.491Z,98461.22
2023-04-08T10:25:18.402Z,98468.44
2023-04-08T10:30:31.767Z,98460.69
2023-04-08T10:35:37.231Z,98460.97
2023-04-08T10:40:42.827Z,98457.69
2023-04-08T10:45:51.687Z,98455.03
2023-04-08T10:50:59.712Z,98460.53
2023-04-08T10:56:15.243Z,98461.00
2023-04-08T11:01:18.546Z,98460.84
2023-04-08T11:06:21.157Z,98463.22
2023-04-08T11:11:29.647Z,98461.97
2023-04-08T11:16:32.982Z,98467.81
2023-04-08T11:21:39.203Z,98458.75
2023-04-08T11:26:42.335Z,98454.84
2023-04-08T11:31:45.334Z,98463.75
2023-04-08T11:36:48.002Z,98452.19
2023-04-08T11:41:50.657Z,98453.06
2023-04-08T11:46:57.541Z,98449.38
2023-04-08T11:52:03.665Z,98445.56
2023-04-08T11:57:06.727Z,98454.75
2023-04-08T12:02:09.397Z,98447.94
2023-04-08T12:07:12.160Z,98457.63
2023-04-08T12:12:14.799Z,98456.53
2023-04-08T12:17:17.495Z,98463.09
2023-04-08T12:22:20.748Z,98462.50
2023-04-08T12:27:23.946Z,98462.22
2023-04-08T12:32:26.885Z,98462.88
2023-04-08T12:37:29.500Z,98461.38
2023-04-08T12:42:32.067Z,98462.28
2023-04-08T12:47:34.655Z,98463.53
2023-04-08T12:52:37.390Z,98455.63
2023-04-08T12:57:40.160Z,98467.69
2023-04-08T13:02:42.942Z,98459.16
2023-04-08T13:07:47.355Z,98451.47
2023-04-08T13:12:50.682Z,98458.13
2023-04-08T13:17:54.559Z,98457.38
2023-04-08T13:22:57.436Z,98451.03
2023-04-08T13:28:00.042Z,98455.16
2023-04-08T13:33:02.676Z,98459.63
2023-04-08T13:38:05.260Z,98460.63
2023-04-08T13:43:08.386Z,98468.69
2023-04-08T13:48:11.064Z,98452.66
2023-04-08T13:53:13.984Z,98449.19
2023-04-08T13:58:23.524Z,98455.88
2023-04-08T14:03:28.260Z,98457.69
2023-04-08T14:08:31.149Z,98458.50
2023-04-08T14:13:34.102Z,98448.13
2023-04-08T14:18:37.834Z,98451.56
2023-04-08T14:23:40.567Z,98453.31
2023-04-08T14:28:43.183Z,98458.69
2023-04-08T14:33:45.832Z,98449.16
2023-04-08T14:38:48.443Z,98454.84
2023-04-08T14:43:50.998Z,98456.06
2023-04-08T14:48:54.203Z,98461.34
2023-04-08T14:53:56.956Z,98460.91
2023-04-08T14:58:59.505Z,98467.69
2023-04-08T15:04:02.328Z,98460.78
2023-04-08T15:09:04.942Z,98471.59
2023-04-08T15:14:07.691Z,98466.56
2023-04-08T15:19:10.596Z,98470.47
2023-04-08T15:24:14.261Z,98475.94
2023-04-08T15:29:17.216Z,98478.38
2023-04-08T15:34:19.886Z,98482.75
2023-04-08T15:39:23.114Z,98479.03
2023-04-08T15:44:26.202Z,98490.75
2023-04-08T15:49:28.824Z,98492.53
2023-04-08T15:54:32.364Z,98495.72
2023-04-08T15:59:35.191Z,98498.75
2023-04-08T16:04:37.806Z,98496.63
2023-04-08T16:09:40.479Z,98506.59
2023-04-08T16:14:43.133Z,98510.53
2023-04-08T16:19:45.747Z,98516.00
2023-04-08T16:24:48.378Z,98524.25
2023-04-08T16:29:51.197Z,98522.88
2023-04-08T16:34:54.505Z,98522.72
2023-04-08T16:39:57.839Z,98526.81
2023-04-08T16:45:01.367Z,98532.63
2023-04-08T16:50:05.572Z,98538.34
2023-04-08T16:55:08.723Z,98546.25
2023-04-08T17:00:12.131Z,98550.41
2023-04-08T17:05:14.896Z,98552.19
2023-04-08T17:10:17.539Z,98555.09
2023-04-08T17:15:20.104Z,98556.81
2023-04-08T17:20:22.993Z,98555.94
2023-04-08T17:25:26.382Z,98571.13
2023-04-08T17:30:29.053Z,98559.84
2023-04-08T17:35:31.867Z,98570.94
2023-04-08T17:40:34.545Z,98568.69
2023-04-08T17:45:37.428Z,98580.41
2023-04-08T17:50:40.001Z,98585.03
2023-04-08T17:55:42.791Z,98591.81
2023-04-08T18:00:45.381Z,98591.69
2023-04-08T18:05:47.962Z,98589.38
2023-04-08T18:10:50.865Z,98592.81
2023-04-08T18:15:53.982Z,98596.84
2023-04-08T18:20:56.862Z,98606.22
2023-04-08T18:25:59.432Z,98611.59
2023-04-08T18:31:02.296Z,98619.50
2023-04-08T18:36:12.893Z,98623.97
2023-04-08T18:41:16.528Z,98625.44
2023-04-08T18:46:20.127Z,98638.25
2023-04-08T18:51:23.602Z,98644.31
2023-04-08T18:56:26.859Z,98651.38
2023-04-08T19:01:31.953Z,98655.66
2023-04-08T19:06:36.152Z,98657.56
2023-04-08T19:11:38.694Z,98663.13
2023-04-08T19:16:41.774Z,98666.28
2023-04-08T19:21:44.638Z,98664.16
2023-04-08T19:26:49.511Z,98676.06
2023-04-08T19:31:53.160Z,98672.97
2023-04-08T19:36:56.341Z,98674.75
2023-04-08T19:41:58.948Z,98675.81
2023-04-08T19:47:01.651Z,98690.19
2023-04-08T19:52:04.226Z,98692.63
2023-04-08T19:57:09.445Z,98687.78
2023-04-08T20:02:12.137Z,98691.09
2023-04-08T20:07:14.793Z,98689.31
2023-04-08T20:12:17.793Z,98685.50
2023-04-08T20:17:21.106Z,98693.19
2023-04-08T20:22:24.208Z,98688.84
2023-04-08T20:27:27.899Z,98689.31
2023-04-08T20:32:30.940Z,98693.25
2023-04-08T20:37:33.863Z,98696.44
2023-04-08T20:42:36.689Z,98695.59
2023-04-08T20:47:39.443Z,98691.81
2023-04-08T20:52:42.067Z,98696.22
2023-04-08T20:57:44.730Z,98694.00
2023-04-08T21:02:48.073Z,98696.78
2023-04-08T21:07:51.058Z,98695.81
2023-04-08T21:12:53.968Z,98691.81
2023-04-08T21:17:56.754Z,98687.25
2023-04-08T21:23:00.703Z,98685.59
2023-04-08T21:28:03.233Z,98685.59
2023-04-08T21:33:05.975Z,98684.47
2023-04-08T21:38:08.556Z,98688.75
2023-04-08T21:43:11.226Z,98691.75
2023-04-08T21:48:13.816Z,98693.66
2023-04-08T21:53:16.900Z,98689.75
2023-04-08T21:58:19.704Z,98687.88
2023-04-08T22:03:22.670Z,98690.78
2023-04-08T22:08:25.698Z,98693.50
2023-04-08T22:13:28.424Z,98690.41
2023-04-08T22:18:31.032Z,98684.19
2023-04-08T22:23:33.603Z,98687.88
2023-04-08T22:28:36.882Z,98686.31
2023-04-08T22:33:40.373Z,98683.41
2023-04-08T22:38:43.022Z,98685.78
2023-04-08T22:43:45.893Z,98678.59
2023-04-08T22:48:49.833Z,98683.94
2023-04-08T22:53:52.912Z,98674.63
2023-04-08T22:58:56.410Z,98676.06
2023-04-08T23:03:58.994Z,98667.06
2023-04-08T23:09:01.661Z,98664.47
2023-04-08T23:14:04.249Z,98665.97
2023-04-08T23:19:07.122Z,98671.53
2023-04-08T23:24:10.489Z,98678.50
2023-04-08T23:29:13.110Z,98679.59
2023-04-08T23:34:16.157Z,98677.22
2023-04-08T23:39:20.076Z,98676.97
2023-04-08T23:44:22.844Z,98680.66
2023-04-08T23:49:25.754Z,98677.56
2023-04-08T23:54:32.976Z,98673.16
2023-04-08T23:59:35.665Z,98675.75
